createdAt,value
2023-08-17T00:01:29.656Z,74358.56
2023-08-17T00:03:02.616Z,74360.53
2023-08-17T00:04:35.765Z,74358.56
2023-08-17T00:06:08.720Z,74360.53
2023-08-17T00:07:41.698Z,74366.47
2023-08-17T00:09:14.729Z,74368.44
2023-08-17T00:10:48.308Z,74368.44
2023-08-17T00:12:21.441Z,74362.50
2023-08-17T00:13:54.667Z,74366.47
2023-08-17T00:15:27.557Z,74366.47
2023-08-17T00:17:00.541Z,74370.41
2023-08-17T00:18:33.506Z,74368.44
2023-08-17T00:20:07.827Z,74366.47
2023-08-17T00:21:40.727Z,74364.50
2023-08-17T00:23:13.648Z,74370.41
2023-08-17T00:24:46.545Z,74370.41
2023-08-17T00:26:19.547Z,74382.28
2023-08-17T00:27:52.666Z,74392.16
2023-08-17T00:29:25.449Z,74370.41
2023-08-17T00:30:58.350Z,74376.34
2023-08-17T00:32:31.437Z,74378.31
2023-08-17T00:34:04.493Z,74376.34
2023-08-17T00:35:37.677Z,74380.28
2023-08-17T00:37:10.859Z,74378.31
2023-08-17T00:38:44.000Z,74376.34
2023-08-17T00:40:16.871Z,74384.25
2023-08-17T00:41:49.947Z,74382.28
2023-08-17T00:43:23.084Z,74390.19
2023-08-17T00:44:56.117Z,74386.22
2023-08-17T00:46:29.522Z,74382.28
2023-08-17T00:48:03.382Z,74374.38
2023-08-17T00:49:36.896Z,74386.22
2023-08-17T00:51:10.451Z,74386.22
2023-08-17T00:52:44.279Z,74386.22
2023-08-17T00:54:21.663Z,74386.22
2023-08-17T00:55:55.309Z,74394.13
2023-08-17T00:57:28.841Z,74388.19
2023-08-17T00:59:02.012Z,74386.22
2023-08-17T01:00:35.040Z,74388.19
2023-08-17T01:02:09.876Z,74386.22
2023-08-17T01:03:44.252Z,74398.09
2023-08-17T01:05:17.382Z,74390.19
2023-08-17T01:06:51.129Z,74398.09
2023-08-17T01:08:24.113Z,74404.00
2023-08-17T01:09:57.166Z,74398.09
2023-08-17T01:11:37.925Z,74394.13
2023-08-17T01:13:19.570Z,74396.09
2023-08-17T01:14:58.569Z,74396.09
2023-08-17T01:16:37.299Z,74402.03
2023-08-17T01:18:24.292Z,74400.06
2023-08-17T01:19:59.188Z,74402.03
2023-08-17T01:21:46.361Z,74400.06
2023-08-17T01:23:19.479Z,74402.03
2023-08-17T01:24:58.462Z,74413.91
2023-08-17T01:26:31.749Z,74411.91
2023-08-17T01:28:05.670Z,74411.91
2023-08-17T01:29:38.717Z,74419.81
2023-08-17T01:31:32.888Z,74413.91
2023-08-17T01:33:09.790Z,74413.91
2023-08-17T01:34:49.707Z,74413.91
2023-08-17T01:36:27.976Z,74413.91
2023-08-17T01:38:06.364Z,74415.88
2023-08-17T01:39:41.949Z,74417.84
2023-08-17T01:41:16.944Z,74415.88
2023-08-17T01:42:51.127Z,74421.81
2023-08-17T01:44:24.199Z,74415.88
2023-08-17T01:45:58.153Z,74413.91
2023-08-17T01:47:31.944Z,74407.97
2023-08-17T01:49:05.262Z,74406.00
2023-08-17T01:50:38.320Z,74409.94
2023-08-17T01:52:11.203Z,74406.00
2023-08-17T01:53:44.190Z,74409.94
2023-08-17T01:55:17.186Z,74407.97
2023-08-17T01:56:50.154Z,74406.00
2023-08-17T01:58:24.709Z,74407.97
2023-08-17T01:59:57.774Z,74406.00
2023-08-17T02:01:30.627Z,74404.00
2023-08-17T02:03:03.252Z,74402.03
2023-08-17T02:04:36.410Z,74402.03
2023-08-17T02:06:09.394Z,74402.03
2023-08-17T02:07:42.862Z,74407.97
2023-08-17T02:09:15.694Z,74400.06
2023-08-17T02:10:48.595Z,74411.91
2023-08-17T02:12:21.660Z,74411.91
2023-08-17T02:13:54.836Z,74427.72
2023-08-17T02:15:27.824Z,74413.91
2023-08-17T02:17:00.739Z,74406.00
2023-08-17T02:18:36.261Z,74427.72
2023-08-17T02:20:10.287Z,74413.91
2023-08-17T02:21:43.510Z,74417.84
2023-08-17T02:23:16.479Z,74425.75
2023-08-17T02:24:49.562Z,74425.75
2023-08-17T02:26:22.365Z,74425.75
2023-08-17T02:27:55.274Z,74421.81
2023-08-17T02:29:28.273Z,74417.84
2023-08-17T02:31:01.154Z,74415.88
2023-08-17T02:32:35.207Z,74413.91
2023-08-17T02:34:09.291Z,74415.88
2023-08-17T02:35:42.202Z,74409.94
2023-08-17T02:37:15.295Z,74409.94
2023-08-17T02:38:48.566Z,74409.94
2023-08-17T02:40:21.422Z,74400.06
2023-08-17T02:41:54.406Z,74402.03
2023-08-17T02:43:27.450Z,74396.09
2023-08-17T02:45:00.364Z,74384.25
2023-08-17T02:46:33.257Z,74384.25
2023-08-17T02:48:06.328Z,74372.41
2023-08-17T02:49:39.177Z,74366.47
2023-08-17T02:51:12.185Z,74350.66
2023-08-17T02:52:45.256Z,74350.66
2023-08-17T02:54:18.739Z,74328.91
2023-08-17T02:55:51.665Z,74322.97
2023-08-17T02:57:25.087Z,74307.19
2023-08-17T02:58:58.337Z,74299.28
2023-08-17T03:00:31.269Z,74303.22
2023-08-17T03:02:04.179Z,74285.44
2023-08-17T03:03:37.446Z,74271.59
2023-08-17T03:05:10.382Z,74188.59
2023-08-17T03:06:43.290Z,74153.03
2023-08-17T03:08:16.129Z,74137.22
2023-08-17T03:09:50.084Z,74137.22
2023-08-17T03:11:23.146Z,74141.16
2023-08-17T03:12:56.069Z,74145.13
2023-08-17T03:14:30.215Z,74158.97
2023-08-17T03:16:03.307Z,74176.75
2023-08-17T03:17:36.923Z,74125.38
2023-08-17T03:19:12.345Z,74109.56
2023-08-17T03:20:48.402Z,74133.28
2023-08-17T03:22:21.454Z,74127.34
2023-08-17T03:23:54.836Z,74139.19
2023-08-17T03:25:27.757Z,74164.88
2023-08-17T03:27:00.760Z,74151.06
2023-08-17T03:28:34.081Z,74196.50
2023-08-17T03:30:07.745Z,74182.69
2023-08-17T03:31:40.917Z,74135.25
2023-08-17T03:33:15.123Z,74060.16
2023-08-17T03:34:48.209Z,74066.06
2023-08-17T03:36:21.209Z,74054.22
2023-08-17T03:37:54.098Z,74062.13
2023-08-17T03:39:27.428Z,74105.59
2023-08-17T03:41:01.126Z,74062.13
2023-08-17T03:42:34.114Z,74070.03
2023-08-17T03:44:08.543Z,74066.06
2023-08-17T03:45:43.158Z,74105.59
2023-08-17T03:47:16.269Z,74087.81
2023-08-17T03:48:49.346Z,74087.81
2023-08-17T03:50:22.312Z,74101.66
2023-08-17T03:51:55.347Z,74111.53
2023-08-17T03:53:28.965Z,74109.56
2023-08-17T03:55:02.210Z,74081.88
2023-08-17T03:56:36.111Z,74066.06
2023-08-17T03:58:09.153Z,74070.03
2023-08-17T03:59:42.908Z,74046.31
2023-08-17T04:01:16.057Z,74008.78
2023-08-17T04:02:49.541Z,73998.88
2023-08-17T04:04:26.975Z,73967.28
2023-08-17T04:06:06.271Z,73949.50
2023-08-17T04:07:39.238Z,73967.28
2023-08-17T04:09:12.655Z,73945.53
2023-08-17T04:10:45.479Z,73917.88
2023-08-17T04:12:20.150Z,73902.06
2023-08-17T04:13:53.006Z,73906.00
2023-08-17T04:15:28.579Z,73830.94
2023-08-17T04:17:01.527Z,73803.25
2023-08-17T04:18:34.529Z,73706.44
2023-08-17T04:20:08.214Z,73639.25
2023-08-17T04:21:41.053Z,73682.72
2023-08-17T04:23:14.987Z,73761.75
2023-08-17T04:24:48.278Z,73825.00
2023-08-17T04:26:21.930Z,73817.09
2023-08-17T04:27:54.832Z,73659.00
2023-08-17T04:29:28.235Z,73500.94
2023-08-17T04:31:01.400Z,73532.56
2023-08-17T04:32:37.406Z,73655.06
2023-08-17T04:34:10.583Z,73633.31
2023-08-17T04:35:43.704Z,73457.47
2023-08-17T04:37:17.057Z,73319.16
2023-08-17T04:38:49.972Z,73259.88
2023-08-17T04:40:23.002Z,73208.53
2023-08-17T04:41:56.320Z,73167.03
2023-08-17T04:43:34.461Z,72977.38
2023-08-17T04:45:09.496Z,72963.53
2023-08-17T04:46:46.178Z,72924.03
2023-08-17T04:48:19.029Z,73078.13
2023-08-17T04:49:54.000Z,73240.13
2023-08-17T04:51:26.957Z,73348.81
2023-08-17T04:53:00.015Z,73386.34
2023-08-17T04:54:33.122Z,73514.78
2023-08-17T04:56:06.382Z,73548.38
2023-08-17T04:57:39.502Z,73550.34
2023-08-17T04:59:15.114Z,73512.78
2023-08-17T05:00:49.276Z,73512.78
2023-08-17T05:02:22.272Z,73498.97
2023-08-17T05:03:56.137Z,73546.38
2023-08-17T05:05:29.954Z,73556.25
2023-08-17T05:07:06.183Z,73579.97
2023-08-17T05:08:39.567Z,73581.94
2023-08-17T05:10:12.493Z,73601.72
2023-08-17T05:11:46.974Z,73560.22
2023-08-17T05:13:20.640Z,73481.19
2023-08-17T05:14:53.899Z,73372.50
2023-08-17T05:16:27.202Z,73242.09
2023-08-17T05:18:00.343Z,73169.00
2023-08-17T05:19:34.850Z,73220.38
2023-08-17T05:21:07.825Z,73119.63
2023-08-17T05:22:40.689Z,73028.72
2023-08-17T05:24:13.929Z,72961.56
2023-08-17T05:25:50.051Z,72965.50
2023-08-17T05:27:23.374Z,72845.00
2023-08-17T05:28:56.553Z,72845.00
2023-08-17T05:30:31.430Z,72860.81
2023-08-17T05:32:04.980Z,72837.09
2023-08-17T05:33:38.030Z,72811.41
2023-08-17T05:35:13.332Z,72837.09
2023-08-17T05:36:46.310Z,72773.88
2023-08-17T05:38:20.157Z,72754.13
2023-08-17T05:39:53.106Z,72835.13
2023-08-17T05:41:27.371Z,72829.19
2023-08-17T05:43:00.709Z,72841.06
2023-08-17T05:44:34.164Z,72912.19
2023-08-17T05:46:07.143Z,72939.84
2023-08-17T05:47:40.268Z,72890.44
2023-08-17T05:49:13.620Z,72888.47
2023-08-17T05:50:46.780Z,72815.38
2023-08-17T05:52:20.531Z,72797.59
2023-08-17T05:53:54.117Z,72762.03
2023-08-17T05:55:27.242Z,72809.44
2023-08-17T05:57:01.101Z,72773.88
2023-08-17T05:58:34.030Z,72799.56
2023-08-17T06:00:07.666Z,72771.91
2023-08-17T06:01:45.141Z,72754.13
2023-08-17T06:03:18.530Z,72769.94
2023-08-17T06:04:51.400Z,72694.88
2023-08-17T06:06:24.519Z,72750.19
2023-08-17T06:07:58.247Z,72710.66
2023-08-17T06:09:31.370Z,72813.41
2023-08-17T06:11:04.319Z,72874.63
2023-08-17T06:12:37.573Z,72884.50
2023-08-17T06:14:10.440Z,72880.56
2023-08-17T06:15:43.499Z,72892.41
2023-08-17T06:17:16.509Z,72837.09
2023-08-17T06:18:49.553Z,72765.97
2023-08-17T06:20:22.928Z,72843.03
2023-08-17T06:21:56.116Z,72758.09
2023-08-17T06:23:29.119Z,72860.81
2023-08-17T06:25:02.827Z,72756.09
2023-08-17T06:26:35.750Z,72811.41
2023-08-17T06:28:08.683Z,72722.53
2023-08-17T06:29:41.568Z,72714.63
2023-08-17T06:31:18.518Z,72671.16
2023-08-17T06:32:54.796Z,72728.44
2023-08-17T06:34:27.825Z,72726.47
2023-08-17T06:36:00.903Z,72823.28
2023-08-17T06:37:33.945Z,72892.41
2023-08-17T06:39:06.931Z,72983.28
2023-08-17T06:40:40.041Z,73005.03
2023-08-17T06:42:12.938Z,73048.50
2023-08-17T06:43:46.093Z,73082.06
2023-08-17T06:45:19.993Z,73155.19
2023-08-17T06:46:53.121Z,73093.94
2023-08-17T06:48:26.112Z,73149.25
2023-08-17T06:49:59.091Z,73165.06
2023-08-17T06:51:31.912Z,73143.31
2023-08-17T06:53:04.896Z,73127.53
2023-08-17T06:54:37.618Z,73143.31
2023-08-17T06:56:11.532Z,73145.28
2023-08-17T06:57:44.597Z,73180.84
2023-08-17T06:59:17.477Z,73194.69
2023-08-17T07:00:50.506Z,73165.06
2023-08-17T07:02:23.582Z,73125.53
2023-08-17T07:03:58.403Z,73176.91
2023-08-17T07:05:31.233Z,73248.03
2023-08-17T07:07:04.176Z,73244.09
2023-08-17T07:08:37.237Z,73230.25
2023-08-17T07:10:13.102Z,73172.97
2023-08-17T07:11:46.012Z,73180.84
2023-08-17T07:13:18.917Z,73226.31
2023-08-17T07:14:52.489Z,73184.81
2023-08-17T07:16:25.613Z,73184.81
2023-08-17T07:17:58.953Z,73196.66
2023-08-17T07:19:57.718Z,73224.31
2023-08-17T07:21:25.158Z,73222.34
2023-08-17T07:22:58.337Z,73220.38
2023-08-17T07:24:31.296Z,73192.72
2023-08-17T07:26:04.793Z,73161.09
2023-08-17T07:27:37.810Z,73167.03
2023-08-17T07:29:10.827Z,73141.34
2023-08-17T07:30:43.948Z,73188.75
2023-08-17T07:32:17.102Z,73200.63
2023-08-17T07:33:50.132Z,73238.16
2023-08-17T07:35:23.226Z,73216.44
2023-08-17T07:36:56.288Z,73234.22
2023-08-17T07:38:29.454Z,73222.34
2023-08-17T07:40:06.434Z,73192.72
2023-08-17T07:41:42.840Z,73145.28
2023-08-17T07:43:15.889Z,73088.00
2023-08-17T07:44:48.888Z,73036.63
2023-08-17T07:46:22.103Z,73042.56
2023-08-17T07:47:55.324Z,73056.41
2023-08-17T07:49:33.063Z,73149.25
2023-08-17T07:51:06.517Z,73149.25
2023-08-17T07:52:39.683Z,73165.06
2023-08-17T07:54:13.063Z,73117.63
2023-08-17T07:55:55.488Z,73153.19
2023-08-17T07:57:30.124Z,73141.34
2023-08-17T07:59:04.359Z,73153.19
2023-08-17T08:00:37.260Z,73172.97
2023-08-17T08:02:10.418Z,73165.06
2023-08-17T08:03:43.578Z,73109.75
2023-08-17T08:05:16.928Z,73113.69
2023-08-17T08:06:49.988Z,73159.13
2023-08-17T08:08:23.620Z,73198.66
2023-08-17T08:09:56.740Z,73222.34
2023-08-17T08:11:32.200Z,73261.88
2023-08-17T08:13:06.263Z,73303.34
2023-08-17T08:14:39.229Z,73323.13
2023-08-17T08:16:12.301Z,73334.97
2023-08-17T08:17:48.540Z,73342.88
2023-08-17T08:19:21.795Z,73350.78
2023-08-17T08:20:54.942Z,73368.56
2023-08-17T08:22:27.845Z,73350.78
2023-08-17T08:24:01.220Z,73362.63
2023-08-17T08:25:34.289Z,73350.78
2023-08-17T08:27:07.552Z,73331.03
2023-08-17T08:28:41.442Z,73313.25
2023-08-17T08:30:14.516Z,73327.06
2023-08-17T08:31:47.388Z,73331.03
2023-08-17T08:33:20.443Z,73352.75
2023-08-17T08:34:53.355Z,73348.81
2023-08-17T08:36:26.610Z,73390.28
2023-08-17T08:38:00.762Z,73370.53
2023-08-17T08:39:34.013Z,73386.34
2023-08-17T08:41:10.310Z,73380.41
2023-08-17T08:42:43.610Z,73354.72
2023-08-17T08:44:16.474Z,73299.41
2023-08-17T08:45:50.849Z,73277.66
2023-08-17T08:47:25.838Z,73283.59
2023-08-17T08:48:59.135Z,73344.84
2023-08-17T08:50:33.411Z,73327.06
2023-08-17T08:52:09.335Z,73358.69
2023-08-17T08:53:47.438Z,73338.91
2023-08-17T08:55:22.975Z,73317.19
2023-08-17T08:57:05.415Z,73279.66
2023-08-17T08:58:39.845Z,73226.31
2023-08-17T09:00:16.481Z,73234.22
2023-08-17T09:01:51.769Z,73265.81
2023-08-17T09:03:26.729Z,73287.56
2023-08-17T09:05:01.194Z,73317.19
2023-08-17T09:06:35.655Z,73319.16
2023-08-17T09:09:50.155Z,73356.69
2023-08-17T09:11:23.649Z,73366.59
2023-08-17T09:12:56.614Z,73376.47
2023-08-17T09:14:29.936Z,73378.44
2023-08-17T09:16:07.349Z,73392.28
2023-08-17T09:17:40.713Z,73392.28
2023-08-17T09:19:14.436Z,73390.28
2023-08-17T09:20:49.388Z,73374.47
2023-08-17T09:22:40.558Z,73384.38
2023-08-17T09:24:13.987Z,73378.44
2023-08-17T09:25:48.372Z,73382.38
2023-08-17T09:27:22.008Z,73374.47
2023-08-17T09:28:58.181Z,73350.78
2023-08-17T09:30:31.202Z,73346.81
2023-08-17T09:32:08.578Z,73327.06
2023-08-17T09:33:45.477Z,73386.34
2023-08-17T09:35:19.486Z,73400.16
2023-08-17T09:36:52.477Z,73419.94
2023-08-17T09:38:25.724Z,73415.97
2023-08-17T09:39:59.260Z,73404.13
2023-08-17T09:41:39.964Z,73338.91
2023-08-17T09:43:16.693Z,73293.47
2023-08-17T09:44:51.524Z,73311.25
2023-08-17T09:46:25.601Z,73307.31
2023-08-17T09:48:03.680Z,73319.16
2023-08-17T09:49:36.897Z,73342.88
2023-08-17T09:51:10.200Z,73323.13
2023-08-17T09:52:43.417Z,73279.66
2023-08-17T09:54:29.913Z,73228.28
2023-08-17T09:56:03.715Z,73200.63
2023-08-17T09:57:37.784Z,73170.97
2023-08-17T09:59:10.965Z,73208.53
2023-08-17T10:00:52.257Z,73248.03
2023-08-17T10:02:26.163Z,73255.94
2023-08-17T10:04:01.350Z,73273.72
2023-08-17T10:05:39.867Z,73253.97
2023-08-17T10:07:15.019Z,73259.88
2023-08-17T10:08:51.409Z,73291.50
2023-08-17T10:10:27.797Z,73327.06
2023-08-17T10:12:07.982Z,73325.09
2023-08-17T10:13:52.634Z,73267.78
2023-08-17T10:15:31.385Z,73208.53
2023-08-17T10:17:11.761Z,73153.19
2023-08-17T10:18:57.170Z,73141.34
2023-08-17T10:20:32.579Z,73095.91
2023-08-17T10:22:19.821Z,73099.84
2023-08-17T10:23:55.146Z,73082.06
2023-08-17T10:25:29.244Z,73048.50
2023-08-17T10:27:02.864Z,73086.03
2023-08-17T10:28:36.235Z,73107.75
2023-08-17T10:30:12.926Z,73188.75
2023-08-17T10:31:47.748Z,73170.97
2023-08-17T10:33:21.461Z,73220.38
2023-08-17T10:34:55.484Z,73238.16
2023-08-17T10:36:29.440Z,73230.25
2023-08-17T10:38:03.793Z,73224.31
2023-08-17T10:39:40.766Z,73253.97
2023-08-17T10:41:18.716Z,73252.00
2023-08-17T10:42:57.151Z,73178.88
2023-08-17T10:44:47.448Z,73143.31
2023-08-17T10:46:21.191Z,73182.84
2023-08-17T10:48:14.450Z,73161.09
2023-08-17T10:49:49.244Z,73163.09
2023-08-17T10:51:26.072Z,73176.91
2023-08-17T10:52:58.975Z,73208.53
2023-08-17T10:54:40.002Z,73204.56
2023-08-17T10:56:15.779Z,73218.41
2023-08-17T10:57:53.166Z,73232.22
2023-08-17T10:59:27.250Z,73255.94
2023-08-17T11:01:00.163Z,73252.00
2023-08-17T11:02:37.170Z,73252.00
2023-08-17T11:04:14.438Z,73293.47
2023-08-17T11:05:55.103Z,73299.41
2023-08-17T11:07:39.636Z,73285.56
2023-08-17T11:09:13.537Z,73285.56
2023-08-17T11:11:08.136Z,73271.75
2023-08-17T11:12:42.900Z,73287.56
2023-08-17T11:14:16.005Z,73281.63
2023-08-17T11:15:49.709Z,73295.44
2023-08-17T11:17:23.129Z,73323.13
2023-08-17T11:18:59.056Z,73307.31
2023-08-17T11:20:32.417Z,73307.31
2023-08-17T11:22:06.663Z,73319.16
2023-08-17T11:23:40.086Z,73259.88
2023-08-17T11:25:13.132Z,73252.00
2023-08-17T11:26:47.685Z,73252.00
2023-08-17T11:28:20.805Z,73267.78
2023-08-17T11:29:54.197Z,73279.66
2023-08-17T11:31:27.249Z,73287.56
2023-08-17T11:33:02.433Z,73295.44
2023-08-17T11:34:37.548Z,73307.31
2023-08-17T11:36:11.517Z,73303.34
2023-08-17T11:37:45.276Z,73301.38
2023-08-17T11:39:21.661Z,73287.56
2023-08-17T11:40:54.981Z,73257.91
2023-08-17T11:42:28.193Z,73267.78
2023-08-17T11:44:01.311Z,73271.75
2023-08-17T11:45:35.388Z,73271.75
2023-08-17T11:47:08.769Z,73248.03
2023-08-17T11:48:41.828Z,73220.38
2023-08-17T11:50:20.971Z,73202.59
2023-08-17T11:51:54.518Z,73186.78
2023-08-17T11:53:35.339Z,73167.03
2023-08-17T11:55:11.195Z,73145.28
2023-08-17T11:56:44.345Z,73169.00
2023-08-17T11:58:18.024Z,73139.38
2023-08-17T11:59:56.490Z,73165.06
2023-08-17T12:01:35.954Z,73127.53
2023-08-17T12:03:09.038Z,73137.41
2023-08-17T12:04:42.498Z,73133.44
2023-08-17T12:06:17.957Z,73113.69
2023-08-17T12:07:57.754Z,73155.19
2023-08-17T12:09:33.887Z,73137.41
2023-08-17T12:11:07.728Z,73165.06
2023-08-17T12:12:41.742Z,73169.00
2023-08-17T12:14:14.863Z,73188.75
2023-08-17T12:15:48.029Z,73236.19
2023-08-17T12:17:23.041Z,73259.88
2023-08-17T12:18:56.893Z,73297.44
2023-08-17T12:20:31.316Z,73285.56
2023-08-17T12:22:04.356Z,73277.66
2023-08-17T12:23:38.001Z,73297.44
2023-08-17T12:25:11.769Z,73329.03
2023-08-17T12:26:48.624Z,73315.22
2023-08-17T12:28:22.011Z,73295.44
2023-08-17T12:29:55.047Z,73283.59
2023-08-17T12:31:34.113Z,73267.78
2023-08-17T12:33:07.303Z,73240.13
2023-08-17T12:34:40.419Z,73242.09
2023-08-17T12:36:13.604Z,73218.41
2023-08-17T12:37:46.749Z,73218.41
2023-08-17T12:39:22.060Z,73198.66
2023-08-17T12:40:55.433Z,73198.66
2023-08-17T12:42:28.719Z,73194.69
2023-08-17T12:44:02.536Z,73212.47
2023-08-17T12:45:40.413Z,73232.22
2023-08-17T12:47:13.391Z,73214.44
2023-08-17T12:48:46.616Z,73214.44
2023-08-17T12:50:19.858Z,73220.38
2023-08-17T12:51:53.314Z,73234.22
2023-08-17T12:53:26.109Z,73261.88
2023-08-17T12:54:59.244Z,73269.78
2023-08-17T12:56:32.066Z,73263.84
2023-08-17T12:58:05.298Z,73263.84
2023-08-17T12:59:38.144Z,73283.59
2023-08-17T13:01:11.246Z,73291.50
2023-08-17T13:02:46.260Z,73297.44
2023-08-17T13:04:19.080Z,73293.47
2023-08-17T13:05:52.256Z,73295.44
2023-08-17T13:07:25.285Z,73303.34
2023-08-17T13:08:58.189Z,73303.34
2023-08-17T13:10:31.098Z,73323.13
2023-08-17T13:12:04.867Z,73315.22
2023-08-17T13:13:38.185Z,73338.91
2023-08-17T13:15:11.309Z,73334.97
2023-08-17T13:16:44.452Z,73338.91
2023-08-17T13:18:17.555Z,73319.16
2023-08-17T13:19:50.852Z,73350.78
2023-08-17T13:21:23.625Z,73350.78
2023-08-17T13:22:56.620Z,73362.63
2023-08-17T13:24:29.612Z,73356.69
2023-08-17T13:26:02.759Z,73352.75
2023-08-17T13:27:35.679Z,73364.59
2023-08-17T13:29:08.550Z,73362.63
2023-08-17T13:30:41.622Z,73376.47
2023-08-17T13:32:14.511Z,73382.38
2023-08-17T13:33:47.450Z,73366.59
2023-08-17T13:35:20.537Z,73370.53
2023-08-17T13:36:53.631Z,73370.53
2023-08-17T13:38:26.595Z,73378.44
2023-08-17T13:40:00.187Z,73380.41
2023-08-17T13:41:33.027Z,73362.63
2023-08-17T13:43:13.292Z,73378.44
2023-08-17T13:44:47.087Z,73380.41
2023-08-17T13:46:20.115Z,73382.38
2023-08-17T13:47:53.186Z,73390.28
2023-08-17T13:49:26.163Z,73390.28
2023-08-17T13:50:59.128Z,73406.09
2023-08-17T13:52:31.917Z,73390.28
2023-08-17T13:54:05.115Z,73402.16
2023-08-17T13:55:38.828Z,73398.19
2023-08-17T13:57:12.347Z,73414.00
2023-08-17T13:58:45.585Z,73417.94
2023-08-17T14:00:18.692Z,73431.78
2023-08-17T14:01:52.161Z,73441.66
2023-08-17T14:03:25.485Z,73437.72
2023-08-17T14:04:58.515Z,73445.63
2023-08-17T14:06:31.539Z,73445.63
2023-08-17T14:08:05.647Z,73421.91
2023-08-17T14:09:38.999Z,73406.09
2023-08-17T14:11:12.248Z,73396.22
2023-08-17T14:12:45.300Z,73396.22
2023-08-17T14:14:18.377Z,73402.16
2023-08-17T14:15:51.948Z,73423.88
2023-08-17T14:17:25.314Z,73435.75
2023-08-17T14:18:58.433Z,73445.63
2023-08-17T14:20:38.545Z,73449.56
2023-08-17T14:22:14.855Z,73463.41
2023-08-17T14:23:48.754Z,73471.31
2023-08-17T14:25:21.770Z,73485.13
2023-08-17T14:26:55.169Z,73498.97
2023-08-17T14:28:28.447Z,73508.84
2023-08-17T14:30:03.046Z,73514.78
2023-08-17T14:31:37.557Z,73512.78
2023-08-17T14:33:10.469Z,73524.66
2023-08-17T14:34:43.612Z,73548.38
2023-08-17T14:36:20.873Z,73546.38
2023-08-17T14:37:54.104Z,73540.47
2023-08-17T14:39:27.007Z,73542.44
2023-08-17T14:41:00.052Z,73546.38
2023-08-17T14:42:33.000Z,73550.34
2023-08-17T14:44:06.317Z,73552.31
2023-08-17T14:45:39.848Z,73564.16
2023-08-17T14:47:13.535Z,73566.16
2023-08-17T14:48:47.874Z,73572.06
2023-08-17T14:50:21.029Z,73581.94
2023-08-17T14:51:53.958Z,73601.72
2023-08-17T14:53:27.054Z,73595.78
2023-08-17T14:54:59.965Z,73599.72
2023-08-17T14:56:32.840Z,73615.53
2023-08-17T14:58:05.989Z,73617.53
2023-08-17T14:59:39.047Z,73631.34
2023-08-17T15:01:11.919Z,73635.31
2023-08-17T15:02:44.966Z,73651.09
2023-08-17T15:04:17.864Z,73676.78
2023-08-17T15:05:51.049Z,73666.91
2023-08-17T15:07:25.340Z,73678.78
2023-08-17T15:08:58.577Z,73694.59
2023-08-17T15:10:32.082Z,73694.59
2023-08-17T15:12:06.745Z,73704.47
2023-08-17T15:13:40.127Z,73706.44
2023-08-17T15:15:13.287Z,73714.34
2023-08-17T15:16:46.193Z,73722.25
2023-08-17T15:18:19.255Z,73732.13
2023-08-17T15:19:52.365Z,73722.25
2023-08-17T15:21:25.462Z,73732.13
2023-08-17T15:22:58.337Z,73742.00
2023-08-17T15:24:31.442Z,73749.91
2023-08-17T15:26:04.410Z,73753.84
2023-08-17T15:27:37.683Z,73761.75
2023-08-17T15:29:11.070Z,73761.75
2023-08-17T15:30:47.837Z,73771.66
2023-08-17T15:32:21.007Z,73781.53
2023-08-17T15:33:53.962Z,73789.44
2023-08-17T15:35:26.843Z,73801.28
2023-08-17T15:37:00.703Z,73809.19
2023-08-17T15:38:33.597Z,73813.13
2023-08-17T15:40:07.115Z,73821.03
2023-08-17T15:41:40.082Z,73821.03
2023-08-17T15:43:13.309Z,73821.03
2023-08-17T15:44:46.318Z,73815.13
2023-08-17T15:46:19.332Z,73828.94
2023-08-17T15:47:52.647Z,73830.94
2023-08-17T15:49:25.904Z,73832.91
2023-08-17T15:50:58.969Z,73842.78
2023-08-17T15:52:31.994Z,73850.69
2023-08-17T15:54:05.776Z,73852.66
2023-08-17T15:55:39.099Z,73856.63
2023-08-17T15:57:12.368Z,73864.50
2023-08-17T15:58:45.742Z,73868.47
2023-08-17T16:00:18.711Z,73864.50
2023-08-17T16:01:51.621Z,73860.56
2023-08-17T16:03:25.407Z,73870.44
2023-08-17T16:04:58.581Z,73870.44
2023-08-17T16:06:31.483Z,73878.34
2023-08-17T16:08:04.892Z,73884.28
2023-08-17T16:09:37.829Z,73886.25
2023-08-17T16:11:12.300Z,73896.13
2023-08-17T16:12:45.256Z,73894.16
2023-08-17T16:14:18.458Z,73900.09
2023-08-17T16:15:53.239Z,73902.06
2023-08-17T16:17:26.462Z,73906.00
2023-08-17T16:19:04.440Z,73896.13
2023-08-17T16:20:38.012Z,73904.03
2023-08-17T16:22:11.044Z,73908.00
2023-08-17T16:23:49.846Z,73906.00
2023-08-17T16:25:22.832Z,73915.91
2023-08-17T16:26:56.426Z,73921.81
2023-08-17T16:28:29.626Z,73921.81
2023-08-17T16:30:02.835Z,73931.69
2023-08-17T16:31:37.175Z,73937.63
2023-08-17T16:33:15.733Z,73953.44
2023-08-17T16:34:50.714Z,73955.41
2023-08-17T16:36:23.676Z,73957.41
2023-08-17T16:37:56.668Z,73967.28
2023-08-17T16:39:29.666Z,73971.22
2023-08-17T16:41:02.520Z,73977.16
2023-08-17T16:42:35.685Z,73981.09
2023-08-17T16:44:08.741Z,74002.84
2023-08-17T16:45:41.958Z,74002.84
2023-08-17T16:47:23.181Z,74008.78
2023-08-17T16:48:56.663Z,74014.69
2023-08-17T16:50:33.328Z,74018.66
2023-08-17T16:52:07.468Z,74022.59
2023-08-17T16:55:18.518Z,74042.38
2023-08-17T16:56:53.754Z,74052.25
2023-08-17T16:58:27.136Z,74042.38
2023-08-17T17:00:04.351Z,74046.31
2023-08-17T17:01:37.725Z,74052.25
2023-08-17T17:03:10.771Z,74062.13
2023-08-17T17:04:44.537Z,74066.06
2023-08-17T17:06:19.689Z,74064.09
2023-08-17T17:07:52.704Z,74077.94
2023-08-17T17:09:26.220Z,74073.97
2023-08-17T17:10:59.300Z,74072.00
2023-08-17T17:12:32.196Z,74075.97
2023-08-17T17:14:05.479Z,74077.94
2023-08-17T17:15:38.559Z,74081.88
2023-08-17T17:17:11.621Z,74093.75
2023-08-17T17:18:44.887Z,74093.75
2023-08-17T17:20:17.887Z,74099.66
2023-08-17T17:21:51.079Z,74097.69
2023-08-17T17:23:26.469Z,74089.78
2023-08-17T17:24:59.430Z,74095.72
2023-08-17T17:26:34.715Z,74107.56
2023-08-17T17:28:08.076Z,74103.63
2023-08-17T17:29:41.486Z,74113.50
2023-08-17T17:31:14.674Z,74117.47
2023-08-17T17:32:47.716Z,74129.31
2023-08-17T17:34:21.159Z,74141.16
2023-08-17T17:35:54.310Z,74143.16
2023-08-17T17:37:27.888Z,74145.13
2023-08-17T17:39:01.439Z,74160.94
2023-08-17T17:40:34.759Z,74160.94
2023-08-17T17:42:08.227Z,74164.88
2023-08-17T17:43:42.060Z,74174.78
2023-08-17T17:45:15.143Z,74176.75
2023-08-17T17:46:48.113Z,74170.81
2023-08-17T17:48:21.521Z,74168.84
2023-08-17T17:49:54.449Z,74164.88
2023-08-17T17:51:27.563Z,74176.75
2023-08-17T17:53:00.673Z,74178.72
2023-08-17T17:54:33.756Z,74170.81
2023-08-17T17:56:06.654Z,74174.78
2023-08-17T17:57:39.527Z,74182.69
2023-08-17T17:59:13.143Z,74186.63
2023-08-17T18:00:48.098Z,74196.50
2023-08-17T18:02:28.441Z,74212.31
2023-08-17T18:04:01.916Z,74208.38
2023-08-17T18:05:34.656Z,74216.28
2023-08-17T18:07:07.561Z,74204.41
2023-08-17T18:08:40.711Z,74198.47
2023-08-17T18:10:13.835Z,74204.41
2023-08-17T18:11:46.889Z,74216.28
2023-08-17T18:13:19.887Z,74236.03
2023-08-17T18:14:54.083Z,74245.91
2023-08-17T18:16:27.180Z,74263.69
2023-08-17T18:18:00.278Z,74307.19
2023-08-17T18:19:33.399Z,74315.09
2023-08-17T18:21:06.828Z,74338.78
2023-08-17T18:22:39.981Z,74328.91
2023-08-17T18:24:12.906Z,74330.88
2023-08-17T18:25:48.324Z,74348.69
2023-08-17T18:27:21.685Z,74338.78
2023-08-17T18:28:56.428Z,74326.94
2023-08-17T18:30:30.674Z,74322.97